createdAt,value
2019-01-27T00:00:51.209Z,99080.36
2019-01-27T00:03:25.206Z,99079.47
2019-01-27T00:05:57.325Z,99071.64
2019-01-27T00:08:32.891Z,99062.97
2019-01-27T00:11:03.400Z,99061.68
2019-01-27T00:14:04.215Z,99053.45
2019-01-27T00:17:57.066Z,99054.77
2019-01-27T00:21:58.228Z,99046.50
2019-01-27T00:24:36.506Z,99033.98
2019-01-27T00:27:06.943Z,99019.67
2019-01-27T00:29:37.213Z,99011.92
2019-01-27T00:32:10.173Z,99017.13
2019-01-27T00:34:40.500Z,99006.71
2019-01-27T00:37:11.021Z,99008.07
2019-01-27T00:39:41.375Z,99001.12
2019-01-27T00:42:11.794Z,98994.20
2019-01-27T00:44:55.314Z,98985.55
2019-01-27T00:47:25.658Z,98975.57
2019-01-27T00:50:10.292Z,98965.20
2019-01-27T00:52:40.781Z,98959.11
2019-01-27T00:55:15.793Z,98970.88
2019-01-27T00:57:46.083Z,98961.77
2019-01-27T01:00:24.795Z,98953.51
2019-01-27T01:02:55.166Z,98946.16
2019-01-27T01:05:25.529Z,98940.55
2019-01-27T01:07:55.965Z,98922.77
2019-01-27T01:10:26.452Z,98920.18
2019-01-27T01:12:56.923Z,98921.08
2019-01-27T01:15:30.052Z,98910.22
2019-01-27T01:18:01.774Z,98901.55
2019-01-27T01:20:33.228Z,98896.36
2019-01-27T01:23:06.427Z,98890.75
2019-01-27T01:25:42.224Z,98881.63
2019-01-27T01:28:12.638Z,98886.45
2019-01-27T01:30:42.950Z,98878.19
2019-01-27T01:33:14.545Z,98878.19
2019-01-27T01:35:44.992Z,98872.98
2019-01-27T01:38:18.565Z,98858.66
2019-01-27T01:40:50.574Z,98871.66
2019-01-27T01:43:21.134Z,98860.80
2019-01-27T01:45:54.909Z,98855.13
2019-01-27T01:48:42.969Z,98853.80
2019-01-27T01:51:15.776Z,98837.73
2019-01-27T01:53:47.513Z,98839.89
2019-01-27T01:56:44.843Z,98833.82
2019-01-27T01:59:18.332Z,98833.37
2019-01-27T02:01:48.784Z,98819.49
2019-01-27T02:04:19.239Z,98817.72
2019-01-27T02:06:52.236Z,98802.56
2019-01-27T02:09:22.643Z,98812.08
2019-01-27T02:12:11.338Z,98802.13
2019-01-27T02:14:44.434Z,98800.83
2019-01-27T02:17:14.843Z,98720.45
2019-01-27T02:19:45.319Z,98789.57
2019-01-27T02:22:15.766Z,98778.28
2019-01-27T02:24:48.117Z,98771.77
2019-01-27T02:27:18.585Z,98774.37
2019-01-27T02:30:37.148Z,98770.45
2019-01-27T02:33:14.989Z,98760.42
2019-01-27T02:35:51.951Z,98743.95
2019-01-27T02:38:24.257Z,98740.88
2019-01-27T02:40:54.877Z,98731.72
2019-01-27T02:44:11.644Z,98726.94
2019-01-27T02:46:44.151Z,98722.13
2019-01-27T02:49:56.697Z,98709.56
2019-01-27T02:52:36.431Z,98647.39
2019-01-27T02:55:47.073Z,98715.67
2019-01-27T02:58:21.144Z,98708.33
2019-01-27T03:00:51.942Z,98701.81
2019-01-27T03:03:36.378Z,98692.27
2019-01-27T03:06:46.628Z,98697.00
2019-01-27T03:09:38.416Z,98690.11
2019-01-27T03:12:31.961Z,98678.48
2019-01-27T03:15:02.764Z,98675.41
2019-01-27T03:17:36.289Z,98679.69
2019-01-27T03:20:10.400Z,98671.86
2019-01-27T03:22:52.026Z,98660.53
2019-01-27T03:25:26.232Z,98661.39
2019-01-27T03:28:35.417Z,98660.97
2019-01-27T03:32:22.410Z,98656.55
2019-01-27T03:35:34.423Z,98641.02
2019-01-27T03:41:54.893Z,98629.71
2019-01-27T03:44:25.409Z,98629.35
2019-01-27T03:46:55.835Z,98628.55
2019-01-27T03:49:28.882Z,98623.78
2019-01-27T03:51:59.328Z,98616.05
2019-01-27T03:54:29.666Z,98609.53
2019-01-27T03:57:00.980Z,98606.05
2019-01-27T03:59:40.758Z,98597.38
2019-01-27T04:02:11.122Z,98599.12
2019-01-27T04:04:42.402Z,98600.81
2019-01-27T04:07:12.916Z,98596.91
2019-01-27T04:09:43.191Z,98597.74
2019-01-27T04:12:16.135Z,98586.42
2019-01-27T04:14:47.714Z,98575.60
2019-01-27T04:17:18.222Z,98571.70
2019-01-27T04:19:51.715Z,98558.67
2019-01-27T04:22:22.053Z,98551.31
2019-01-27T04:24:52.427Z,98552.23
2019-01-27T04:27:23.819Z,98553.55
2019-01-27T04:29:54.182Z,98553.94
2019-01-27T04:32:30.005Z,98550.48
2019-01-27T04:35:01.927Z,98552.23
2019-01-27T04:37:32.258Z,98548.73
2019-01-27T04:40:02.710Z,98548.26
2019-01-27T04:42:33.017Z,98540.02
2019-01-27T04:45:03.481Z,98530.42
2019-01-27T04:47:33.996Z,98525.22
2019-01-27T04:50:05.178Z,98526.95
2019-01-27T04:52:37.907Z,98525.19
2019-01-27T04:55:10.333Z,98517.36
2019-01-27T04:57:40.828Z,98517.30
2019-01-27T05:00:16.151Z,98512.97
2019-01-27T05:02:54.220Z,98520.31
2019-01-27T05:05:24.640Z,98510.29
2019-01-27T05:07:54.995Z,98510.69
2019-01-27T05:10:25.548Z,98505.47
2019-01-27T05:12:55.985Z,98498.91
2019-01-27T05:15:27.088Z,98495.41
2019-01-27T05:17:57.418Z,98488.89
2019-01-27T05:20:30.908Z,98481.08
2019-01-27T05:23:01.284Z,98483.69
2019-01-27T05:25:34.520Z,98485.41
2019-01-27T05:28:04.970Z,98483.20
2019-01-27T05:30:36.615Z,98477.13
2019-01-27T05:33:06.973Z,98472.73
2019-01-27T05:35:37.528Z,98474.45
2019-01-27T05:38:07.905Z,98477.02
2019-01-27T05:40:40.030Z,98472.22
2019-01-27T05:43:10.473Z,98473.05
2019-01-27T05:45:40.914Z,98467.02
2019-01-27T05:48:11.411Z,98468.31
2019-01-27T05:50:43.963Z,98465.31
2019-01-27T05:53:14.555Z,98460.10
2019-01-27T05:55:44.845Z,98450.53
2019-01-27T05:58:15.227Z,98455.29
2019-01-27T06:00:46.873Z,98454.44
2019-01-27T06:03:17.377Z,98453.98
2019-01-27T06:05:47.954Z,98444.47
2019-01-27T06:08:18.389Z,98441.02
2019-01-27T06:10:48.804Z,98437.14
2019-01-27T06:13:19.205Z,98436.74
2019-01-27T06:15:51.677Z,98432.38
2019-01-27T06:18:21.979Z,98438.92
2019-01-27T06:20:52.371Z,98434.16
2019-01-27T06:23:22.573Z,98431.16
2019-01-27T06:25:56.317Z,98430.25
2019-01-27T06:28:26.619Z,98421.59
2019-01-27T06:30:57.000Z,98422.05
2019-01-27T06:33:45.123Z,98432.48
2019-01-27T06:36:18.241Z,98424.25
2019-01-27T06:38:48.670Z,98422.55
2019-01-27T06:41:19.073Z,98425.13
2019-01-27T06:43:49.370Z,98410.34
2019-01-27T06:46:19.726Z,98413.41
2019-01-27T06:48:49.967Z,98409.05
2019-01-27T06:51:20.397Z,98406.44
2019-01-27T06:53:50.714Z,98406.92
2019-01-27T06:56:21.048Z,98402.11
2019-01-27T06:59:08.736Z,98396.90
2019-01-27T07:01:58.845Z,98397.33
2019-01-27T07:04:39.305Z,98393.44
2019-01-27T07:07:14.829Z,98390.87
2019-01-27T07:10:13.191Z,98394.38
2019-01-27T07:13:01.603Z,98389.56
2019-01-27T07:15:54.558Z,98383.96
2019-01-27T07:18:42.341Z,98386.56
2019-01-27T07:21:37.255Z,98385.72
2019-01-27T07:24:15.790Z,98385.27
2019-01-27T07:27:03.549Z,98381.33
2019-01-27T07:30:02.037Z,98379.14
2019-01-27T07:32:41.040Z,98377.00
2019-01-27T07:35:30.107Z,98372.23
2019-01-27T07:38:23.511Z,98368.73
2019-01-27T07:41:07.162Z,98365.25
2019-01-27T07:43:52.373Z,98369.55
2019-01-27T07:46:47.606Z,98361.73
2019-01-27T07:49:30.763Z,98366.95
2019-01-27T07:52:08.439Z,98363.46
2019-01-27T07:54:55.194Z,98362.52
2019-01-27T07:57:50.286Z,98362.05
2019-01-27T08:00:52.429Z,98362.02
2019-01-27T08:03:40.495Z,98362.02
2019-01-27T08:06:35.771Z,98352.90
2019-01-27T08:09:29.850Z,98355.90
2019-01-27T08:12:26.826Z,98355.41
2019-01-27T08:15:14.559Z,98353.63
2019-01-27T08:18:04.807Z,98353.56
2019-01-27T08:20:50.040Z,98350.94
2019-01-27T08:23:48.591Z,98345.66
2019-01-27T08:26:32.070Z,98339.55
2019-01-27T08:29:16.934Z,98344.27
2019-01-27T08:32:24.063Z,98342.94
2019-01-27T08:35:01.580Z,98348.57
2019-01-27T08:37:51.491Z,98347.73
2019-01-27T08:40:32.575Z,98342.42
2019-01-27T08:43:17.647Z,98347.61
2019-01-27T08:46:04.655Z,98344.52
2019-01-27T08:48:35.075Z,98342.34
2019-01-27T08:51:08.650Z,98337.66
2019-01-27T08:53:38.967Z,98343.58
2019-01-27T08:56:10.974Z,98339.21
2019-01-27T08:58:42.340Z,98344.03
2019-01-27T09:01:37.640Z,98338.42
2019-01-27T09:04:19.974Z,98332.75
2019-01-27T09:07:12.441Z,98336.70
2019-01-27T09:10:13.527Z,98338.42
2019-01-27T09:13:03.815Z,98343.12
2019-01-27T09:15:56.910Z,98337.84
2019-01-27T09:18:36.055Z,98332.27
2019-01-27T09:21:18.115Z,98333.52
2019-01-27T09:24:06.179Z,98336.09
2019-01-27T09:27:07.695Z,98331.78
2019-01-27T09:29:55.830Z,98327.00
2019-01-27T09:32:32.419Z,98336.55
2019-01-27T09:35:13.938Z,98334.69
2019-01-27T09:38:18.282Z,98338.09
2019-01-27T09:41:25.876Z,98336.27
2019-01-27T09:44:13.931Z,98334.50
2019-01-27T09:47:03.210Z,98338.87
2019-01-27T09:50:01.610Z,98334.56
2019-01-27T09:52:42.080Z,98339.23
2019-01-27T09:55:29.632Z,98336.17
2019-01-27T09:58:11.824Z,98337.44
2019-01-27T10:00:46.637Z,98341.26
2019-01-27T10:03:41.013Z,98330.02
2019-01-27T10:06:20.869Z,98335.69
2019-01-27T10:09:01.204Z,98332.75
2019-01-27T10:11:46.011Z,98334.50
2019-01-27T10:14:33.588Z,98341.54
2019-01-27T10:17:21.643Z,98343.30
2019-01-27T10:20:01.424Z,98340.72
2019-01-27T10:22:50.624Z,98341.27
2019-01-27T10:25:38.604Z,98333.94
2019-01-27T10:28:41.135Z,98330.91
2019-01-27T10:31:29.558Z,98331.23
2019-01-27T10:34:17.666Z,98332.02
2019-01-27T10:37:01.073Z,98327.14
2019-01-27T10:39:46.224Z,98327.50
2019-01-27T10:42:39.479Z,98320.50
2019-01-27T10:45:29.133Z,98327.50
2019-01-27T10:48:26.883Z,98316.20
2019-01-27T10:51:14.897Z,98318.31
2019-01-27T10:54:03.249Z,98319.59
2019-01-27T10:56:41.858Z,98321.22
2019-01-27T10:59:27.854Z,98319.45
2019-01-27T11:02:09.462Z,98312.84
2019-01-27T11:04:57.519Z,98307.56
2019-01-27T11:07:45.728Z,98316.55
2019-01-27T11:10:44.090Z,98316.95
2019-01-27T11:13:47.616Z,98315.64
2019-01-27T11:16:45.888Z,98316.42
2019-01-27T11:19:31.074Z,98307.66
2019-01-27T11:22:20.381Z,98310.13
2019-01-27T11:25:15.667Z,98300.77
2019-01-27T11:28:10.974Z,98302.63
2019-01-27T11:31:00.276Z,98303.58
2019-01-27T11:33:41.011Z,98303.22
2019-01-27T11:36:28.977Z,98297.94
2019-01-27T11:39:19.823Z,98292.23
2019-01-27T11:42:09.300Z,98286.87
2019-01-27T11:44:53.688Z,98291.86
2019-01-27T11:47:49.163Z,98290.20
2019-01-27T11:50:26.365Z,98298.59
2019-01-27T11:53:00.723Z,98289.28
2019-01-27T11:55:31.162Z,98297.42
2019-01-27T11:58:01.732Z,98300.03
2019-01-27T12:00:40.380Z,98294.85
2019-01-27T12:03:11.852Z,98293.69
2019-01-27T12:05:42.327Z,98288.16
2019-01-27T12:08:14.808Z,98289.14
2019-01-27T12:10:45.363Z,98288.05
2019-01-27T12:13:15.681Z,98286.95
2019-01-27T12:15:47.906Z,98288.50
2019-01-27T12:18:20.671Z,98291.14
2019-01-27T12:20:51.078Z,98286.42
2019-01-27T12:23:21.468Z,98280.68
2019-01-27T12:25:51.851Z,98283.50
2019-01-27T12:28:22.255Z,98285.83
2019-01-27T12:30:54.470Z,98276.41
2019-01-27T12:33:24.699Z,98278.73
2019-01-27T12:35:55.661Z,98281.47
2019-01-27T12:38:27.965Z,98278.26
2019-01-27T12:41:03.027Z,98281.11
2019-01-27T12:43:33.424Z,98280.41
2019-01-27T12:46:03.809Z,98275.83
2019-01-27T12:48:34.331Z,98281.16
2019-01-27T12:51:04.825Z,98277.32
2019-01-27T12:53:35.227Z,98287.48
2019-01-27T12:56:09.212Z,98293.59
2019-01-27T12:58:42.446Z,98290.59
2019-01-27T13:01:16.035Z,98280.46
2019-01-27T13:03:53.698Z,98282.61
2019-01-27T13:06:28.162Z,98280.95
2019-01-27T13:08:58.594Z,98289.67
2019-01-27T13:11:30.836Z,98290.62
2019-01-27T13:14:01.249Z,98286.36
2019-01-27T13:16:33.404Z,98282.58
2019-01-27T13:19:05.430Z,98280.02
2019-01-27T13:21:36.727Z,98284.73
2019-01-27T13:24:23.335Z,98280.47
2019-01-27T13:26:53.807Z,98283.61
2019-01-27T13:29:24.393Z,98282.41
2019-01-27T13:31:54.778Z,98296.90
2019-01-27T13:34:25.080Z,98302.75
2019-01-27T13:36:55.500Z,98313.55
2019-01-27T13:39:25.869Z,98323.95
2019-01-27T13:41:58.547Z,98326.10
2019-01-27T13:44:28.866Z,98326.27
2019-01-27T13:46:59.183Z,98326.72
2019-01-27T13:49:29.439Z,98326.35
2019-01-27T13:52:03.326Z,98326.84
2019-01-27T13:54:33.745Z,98330.30
2019-01-27T13:57:04.081Z,98331.66
2019-01-27T13:59:34.372Z,98334.33
2019-01-27T14:02:04.981Z,98340.58
2019-01-27T14:04:37.387Z,98353.78
2019-01-27T14:07:14.949Z,98352.69
2019-01-27T14:09:45.339Z,98356.74
2019-01-27T14:12:15.750Z,98364.34
2019-01-27T14:14:45.997Z,98363.13
2019-01-27T14:17:19.056Z,98366.12
2019-01-27T14:19:49.342Z,98361.25
2019-01-27T14:22:19.723Z,98362.61
2019-01-27T14:24:53.220Z,98356.95
2019-01-27T14:27:23.536Z,98363.37
2019-01-27T14:29:56.782Z,98365.25
2019-01-27T14:32:27.316Z,98375.05
2019-01-27T14:34:57.533Z,98374.55
2019-01-27T14:37:27.841Z,98379.55
2019-01-27T14:39:59.314Z,98381.45
2019-01-27T14:42:29.783Z,98384.22
2019-01-27T14:45:06.859Z,98389.08
2019-01-27T14:47:38.760Z,98391.70
2019-01-27T14:50:15.132Z,98393.45
2019-01-27T14:52:46.988Z,98392.63
2019-01-27T14:55:20.348Z,98393.06
2019-01-27T14:57:51.101Z,98400.44
2019-01-27T15:00:36.202Z,98401.74
2019-01-27T15:03:05.023Z,98395.23
2019-01-27T15:05:35.388Z,98398.69
2019-01-27T15:08:07.610Z,98407.42
2019-01-27T15:10:39.099Z,98408.80
2019-01-27T15:13:09.865Z,98412.80
2019-01-27T15:15:42.703Z,98416.80
2019-01-27T15:18:14.527Z,98419.88
2019-01-27T15:20:54.783Z,98418.14
2019-01-27T15:23:25.094Z,98422.50
2019-01-27T15:25:58.495Z,98421.63
2019-01-27T15:28:28.942Z,98423.76
2019-01-27T15:30:59.361Z,98430.27
2019-01-27T15:33:29.727Z,98437.19
2019-01-27T15:36:00.179Z,98433.75
2019-01-27T15:38:30.426Z,98441.66
2019-01-27T15:41:01.460Z,98444.78
2019-01-27T15:43:34.737Z,98454.02
2019-01-27T15:46:06.380Z,98455.88
2019-01-27T15:48:38.444Z,98461.62
2019-01-27T15:51:08.891Z,98463.39
2019-01-27T15:53:39.347Z,98460.78
2019-01-27T15:56:10.066Z,98464.75
2019-01-27T15:58:40.616Z,98469.19
2019-01-27T16:01:13.787Z,98468.45
2019-01-27T16:03:47.741Z,98477.25
2019-01-27T16:06:18.133Z,98478.59
2019-01-27T16:08:48.502Z,98477.81
2019-01-27T16:11:18.789Z,98480.39
2019-01-27T16:13:49.128Z,98483.80
2019-01-27T16:16:20.658Z,98494.61
2019-01-27T16:18:51.091Z,98491.13
2019-01-27T16:21:27.450Z,98493.77
2019-01-27T16:24:00.555Z,98497.22
2019-01-27T16:26:30.991Z,98501.59
2019-01-27T16:29:01.396Z,98497.75
2019-01-27T16:31:44.425Z,98497.84
2019-01-27T16:34:53.467Z,98501.00
2019-01-27T16:37:23.996Z,98511.96
2019-01-27T16:39:54.330Z,98513.42
2019-01-27T16:42:28.600Z,98514.84
2019-01-27T16:44:58.628Z,98513.16
2019-01-27T16:47:29.020Z,98521.33
2019-01-27T16:49:59.319Z,98529.14
2019-01-27T16:52:29.701Z,98526.17
2019-01-27T16:55:00.196Z,98528.83
2019-01-27T16:57:30.495Z,98522.84
2019-01-27T17:00:00.937Z,98539.80
2019-01-27T17:02:31.285Z,98544.67
2019-01-27T17:05:01.771Z,98532.22
2019-01-27T17:07:32.501Z,98546.59
2019-01-27T17:10:04.114Z,98538.88
2019-01-27T17:12:34.689Z,98545.87
2019-01-27T17:15:06.051Z,98549.38
2019-01-27T17:17:37.017Z,98553.74
2019-01-27T17:20:10.981Z,98550.34
2019-01-27T17:22:42.935Z,98550.80
2019-01-27T17:25:13.905Z,98551.25
2019-01-27T17:27:45.115Z,98558.58
2019-01-27T17:30:18.608Z,98562.42
2019-01-27T17:32:52.966Z,98551.20
2019-01-27T17:35:23.991Z,98558.53
2019-01-27T17:37:54.919Z,98558.58
2019-01-27T17:40:25.872Z,98553.41
2019-01-27T17:42:56.605Z,98559.48
2019-01-27T17:45:27.120Z,98563.82
2019-01-27T17:48:04.412Z,98556.88
2019-01-27T17:50:34.801Z,98565.12
2019-01-27T17:53:05.919Z,98554.80
2019-01-27T17:55:39.911Z,98560.39
2019-01-27T17:58:28.110Z,98556.95
2019-01-27T18:01:16.013Z,98569.47
2019-01-27T18:03:58.997Z,98564.33
2019-01-27T18:06:49.331Z,98568.66
2019-01-27T18:09:26.084Z,98563.93
2019-01-27T18:12:01.978Z,98566.13
2019-01-27T18:14:35.783Z,98563.95
2019-01-27T18:17:07.247Z,98569.17
2019-01-27T18:19:39.861Z,98567.44
2019-01-27T18:22:10.237Z,98557.95
2019-01-27T18:24:40.630Z,98566.63
2019-01-27T18:27:11.157Z,98570.97
2019-01-27T18:29:41.647Z,98564.05
2019-01-27T18:32:12.033Z,98568.81
2019-01-27T18:34:42.360Z,98563.19
2019-01-27T18:37:12.947Z,98562.28
2019-01-27T18:39:43.462Z,98564.84
2019-01-27T18:42:17.234Z,98569.13
2019-01-27T18:44:54.799Z,98568.27
2019-01-27T18:47:25.405Z,98570.48
2019-01-27T18:49:55.717Z,98571.81
2019-01-27T18:52:31.237Z,98573.52
2019-01-27T18:55:12.590Z,98573.06
2019-01-27T18:58:02.162Z,98577.00
2019-01-27T19:00:36.859Z,98571.81
2019-01-27T19:03:14.757Z,98571.81
2019-01-27T19:06:21.057Z,98569.22
2019-01-27T19:08:59.951Z,98568.83
2019-01-27T19:11:45.652Z,98575.84
2019-01-27T19:14:53.503Z,98569.81
2019-01-27T19:17:59.861Z,98569.42
2019-01-27T19:20:47.613Z,98567.31
2019-01-27T19:23:30.228Z,98572.91
2019-01-27T19:26:10.311Z,98564.28
2019-01-27T19:29:13.626Z,98564.28
2019-01-27T19:31:54.236Z,98566.02
2019-01-27T19:34:42.224Z,98567.31
2019-01-27T19:37:22.532Z,98568.97
2019-01-27T19:40:13.867Z,98563.30
2019-01-27T19:43:18.443Z,98571.47
2019-01-27T19:46:17.092Z,98565.34
2019-01-27T19:48:57.090Z,98563.14
2019-01-27T19:51:52.502Z,98563.55
2019-01-27T19:54:40.661Z,98558.80
2019-01-27T19:57:32.954Z,98560.59
2019-01-27T20:00:28.652Z,98554.97
2019-01-27T20:03:11.064Z,98549.83
2019-01-27T20:06:05.110Z,98558.86
2019-01-27T20:08:53.377Z,98556.25
2019-01-27T20:11:42.503Z,98554.11
2019-01-27T20:14:46.886Z,98551.52
2019-01-27T20:17:39.515Z,98558.81
2019-01-27T20:20:32.101Z,98551.47
2019-01-27T20:23:21.822Z,98543.67
2019-01-27T20:26:09.797Z,98546.63
2019-01-27T20:29:00.947Z,98544.83
2019-01-27T20:31:56.209Z,98548.26
2019-01-27T20:34:44.018Z,98538.27
2019-01-27T20:37:31.890Z,98539.92
2019-01-27T20:40:19.952Z,98544.66
2019-01-27T20:43:21.821Z,98539.01
2019-01-27T20:46:14.083Z,98529.92
2019-01-27T20:49:16.492Z,98536.81
2019-01-27T20:51:57.487Z,98529.01
2019-01-27T20:54:49.886Z,98527.70
2019-01-27T20:57:37.287Z,98524.21
2019-01-27T21:00:32.631Z,98521.16
2019-01-27T21:03:20.760Z,98521.55
2019-01-27T21:06:13.024Z,98517.20
2019-01-27T21:08:49.520Z,98518.45
2019-01-27T21:11:50.460Z,98519.73
2019-01-27T21:14:34.168Z,98508.90
2019-01-27T21:17:26.072Z,98507.17
2019-01-27T21:20:05.798Z,98504.17
2019-01-27T21:22:36.503Z,98502.04
2019-01-27T21:25:09.722Z,98501.17
2019-01-27T21:27:40.534Z,98505.94
2019-01-27T21:30:14.204Z,98509.42
2019-01-27T21:32:44.763Z,98507.23
2019-01-27T21:35:53.292Z,98510.28
2019-01-27T21:38:23.874Z,98503.41
2019-01-27T21:40:54.471Z,98503.47
2019-01-27T21:43:26.701Z,98501.77
2019-01-27T21:45:57.673Z,98495.29
2019-01-27T21:48:29.582Z,98493.59
2019-01-27T21:51:16.805Z,98494.89
2019-01-27T21:53:47.619Z,98497.89
2019-01-27T21:56:27.852Z,98492.29
2019-01-27T21:58:58.717Z,98475.42
2019-01-27T22:01:30.369Z,98477.58
2019-01-27T22:04:04.674Z,98482.77
2019-01-27T22:06:35.572Z,98482.77
2019-01-27T22:09:10.121Z,98475.88
2019-01-27T22:11:41.041Z,98473.69
2019-01-27T22:14:11.670Z,98478.02
2019-01-27T22:16:42.286Z,98468.05
2019-01-27T22:19:14.971Z,98472.83
2019-01-27T22:21:47.759Z,98465.89
2019-01-27T22:24:18.435Z,98463.75
2019-01-27T22:26:49.079Z,98471.53
2019-01-27T22:29:20.038Z,98466.75
2019-01-27T22:31:50.936Z,98475.83
2019-01-27T22:34:28.081Z,98466.75
2019-01-27T22:37:02.442Z,98475.44
2019-01-27T22:39:36.464Z,98474.55
2019-01-27T22:42:07.420Z,98472.39
2019-01-27T22:44:37.840Z,98471.09
2019-01-27T22:47:08.217Z,98452.47
2019-01-27T22:49:38.616Z,98464.16
2019-01-27T22:52:09.086Z,98459.40
2019-01-27T22:54:39.546Z,98458.52
2019-01-27T22:57:10.039Z,98450.31
2019-01-27T22:59:40.259Z,98453.75
2019-01-27T23:02:10.615Z,98453.75
2019-01-27T23:04:40.913Z,98447.67
2019-01-27T23:07:11.209Z,98451.61
2019-01-27T23:09:41.579Z,98443.38
2019-01-27T23:12:11.954Z,98446.42
2019-01-27T23:14:42.335Z,98448.14
2019-01-27T23:17:12.702Z,98439.05
2019-01-27T23:19:42.973Z,98452.47
2019-01-27T23:22:13.272Z,98452.07
2019-01-27T23:24:45.335Z,98438.66
2019-01-27T23:27:15.728Z,98448.18
2019-01-27T23:29:46.152Z,98443.83
2019-01-27T23:32:16.485Z,98453.31
2019-01-27T23:34:46.904Z,98444.67
2019-01-27T23:37:17.214Z,98449.81
2019-01-27T23:39:47.557Z,98447.20
2019-01-27T23:42:18.204Z,98446.31
2019-01-27T23:44:48.575Z,98448.91
2019-01-27T23:47:18.851Z,98447.61
2019-01-27T23:49:49.236Z,98450.20
2019-01-27T23:52:19.620Z,98445.47
2019-01-27T23:54:49.912Z,98445.90
2019-01-27T23:57:20.306Z,98454.98
2019-01-27T23:59:50.708Z,98452.84
